createdAt,value
2023-05-19T00:02:06.170Z,101946.84
2023-05-19T00:04:33.549Z,101936.66
2023-05-19T00:07:01.350Z,101940.16
2023-05-19T00:09:28.432Z,101940.81
2023-05-19T00:11:56.844Z,101936.72
2023-05-19T00:14:23.981Z,101935.09
2023-05-19T00:16:50.834Z,101936.59
2023-05-19T00:19:17.778Z,101932.97
2023-05-19T00:21:44.253Z,101942.84
2023-05-19T00:24:10.621Z,101942.84
2023-05-19T00:26:37.530Z,101935.63
2023-05-19T00:29:07.021Z,101938.78
2023-05-19T00:31:35.101Z,101936.78
2023-05-19T00:34:01.623Z,101940.75
2023-05-19T00:36:28.494Z,101935.47
2023-05-19T00:38:54.940Z,101939.44
2023-05-19T00:41:21.634Z,101932.88
2023-05-19T00:43:48.128Z,101933.56
2023-05-19T00:46:14.968Z,101940.16
2023-05-19T00:48:44.957Z,101938.03
2023-05-19T00:51:14.620Z,101939.06
2023-05-19T00:53:41.579Z,101932.97
2023-05-19T00:56:07.961Z,101928.88
2023-05-19T00:58:35.910Z,101931.53
2023-05-19T01:01:07.249Z,101931.41
2023-05-19T01:03:35.764Z,101938.97
2023-05-19T01:06:04.936Z,101942.91
2023-05-19T01:08:40.997Z,101934.84
2023-05-19T01:11:08.490Z,101934.38
2023-05-19T01:13:36.094Z,101934.72
2023-05-19T01:16:13.100Z,101929.66
2023-05-19T01:18:47.437Z,101928.03
2023-05-19T01:21:51.718Z,101934.97
2023-05-19T01:24:46.789Z,101924.09
2023-05-19T01:27:29.853Z,101927.09
2023-05-19T01:30:29.893Z,101924.00
2023-05-19T01:33:02.477Z,101923.03
2023-05-19T01:35:30.910Z,101926.84
2023-05-19T01:38:00.480Z,101923.72
2023-05-19T01:40:28.173Z,101921.13
2023-05-19T01:42:57.809Z,101918.50
2023-05-19T01:45:25.102Z,101925.09
2023-05-19T01:47:58.855Z,101922.47
2023-05-19T01:50:25.636Z,101913.63
2023-05-19T01:52:53.284Z,101921.53
2023-05-19T01:55:21.515Z,101927.44
2023-05-19T01:57:57.202Z,101921.69
2023-05-19T02:00:48.635Z,101927.97
2023-05-19T02:03:23.681Z,101924.19
2023-05-19T02:06:19.673Z,101923.19
2023-05-19T02:09:16.656Z,101932.09
2023-05-19T02:12:01.042Z,101935.19
2023-05-19T02:14:36.429Z,101933.72
2023-05-19T02:17:05.075Z,101936.69
2023-05-19T02:19:35.331Z,101941.28
2023-05-19T02:22:04.760Z,101936.69
2023-05-19T02:24:31.238Z,101934.59
2023-05-19T02:26:57.655Z,101943.28
2023-05-19T02:29:24.055Z,101936.38
2023-05-19T02:31:50.919Z,101934.75
2023-05-19T02:34:17.693Z,101934.59
2023-05-19T02:36:45.354Z,101928.47
2023-05-19T02:39:12.871Z,101927.19
2023-05-19T02:41:39.339Z,101929.97
2023-05-19T02:44:06.053Z,101931.97
2023-05-19T02:46:33.068Z,101933.94
2023-05-19T02:48:59.759Z,101928.34
2023-05-19T02:51:28.110Z,101933.13
2023-05-19T02:53:55.516Z,101929.50
2023-05-19T02:56:23.442Z,101928.19
2023-05-19T02:58:49.876Z,101920.13
2023-05-19T03:01:16.734Z,101923.91
2023-05-19T03:03:45.409Z,101929.81
2023-05-19T03:06:12.921Z,101925.19
2023-05-19T03:08:42.315Z,101926.69
2023-05-19T03:11:10.479Z,101924.56
2023-05-19T03:13:39.023Z,101923.25
2023-05-19T03:16:07.103Z,101922.44
2023-05-19T03:18:34.659Z,101919.63
2023-05-19T03:21:01.145Z,101917.84
2023-05-19T03:23:28.166Z,101919.63
2023-05-19T03:25:56.322Z,101919.78
2023-05-19T03:28:27.491Z,101917.63
2023-05-19T03:30:53.998Z,101913.84
2023-05-19T03:33:20.683Z,101918.94
2023-05-19T03:35:48.190Z,101915.97
2023-05-19T03:38:14.694Z,101927.81
2023-05-19T03:40:41.957Z,101936.00
2023-05-19T03:43:08.826Z,101935.84
2023-05-19T03:45:35.470Z,101942.91
2023-05-19T03:48:02.154Z,101932.38
2023-05-19T03:50:29.076Z,101941.34
2023-05-19T03:52:56.693Z,101937.25
2023-05-19T03:55:23.314Z,101946.78
2023-05-19T03:57:50.928Z,101941.50
2023-05-19T04:00:18.053Z,101949.06
2023-05-19T04:02:44.628Z,101951.50
2023-05-19T04:05:11.429Z,101951.22
2023-05-19T04:07:40.992Z,101947.75
2023-05-19T04:10:08.034Z,101937.97
2023-05-19T04:12:34.501Z,101947.34
2023-05-19T04:15:00.924Z,101947.19
2023-05-19T04:17:27.810Z,101939.81
2023-05-19T04:19:54.389Z,101944.41
2023-05-19T04:22:21.291Z,101947.69
2023-05-19T04:24:48.625Z,101937.50
2023-05-19T04:27:16.575Z,101940.78
2023-05-19T04:29:43.642Z,101943.75
2023-05-19T04:32:11.656Z,101936.72
2023-05-19T04:34:46.712Z,101933.25
2023-05-19T04:37:14.358Z,101938.53
2023-05-19T04:39:45.367Z,101942.63
2023-05-19T04:42:12.693Z,101931.13
2023-05-19T04:44:40.410Z,101936.06
2023-05-19T04:47:11.628Z,101938.50
2023-05-19T04:49:41.275Z,101935.56
2023-05-19T04:52:13.441Z,101940.50
2023-05-19T04:54:40.130Z,101937.38
2023-05-19T04:57:06.778Z,101936.25
2023-05-19T04:59:33.794Z,101939.50
2023-05-19T05:02:00.360Z,101930.78
2023-05-19T05:04:26.770Z,101940.50
2023-05-19T05:06:53.140Z,101931.44
2023-05-19T05:09:21.487Z,101930.31
2023-05-19T05:11:48.453Z,101927.66
2023-05-19T05:14:16.552Z,101930.97
2023-05-19T05:16:43.585Z,101929.47
2023-05-19T05:19:11.179Z,101934.41
2023-05-19T05:21:37.931Z,101936.06
2023-05-19T05:24:04.969Z,101932.91
2023-05-19T05:26:35.329Z,101945.75
2023-05-19T05:29:02.915Z,101945.06
2023-05-19T05:31:29.675Z,101945.25
2023-05-19T05:33:56.445Z,101946.25
2023-05-19T05:36:24.592Z,101932.91
2023-05-19T05:38:53.104Z,101939.47
2023-05-19T05:41:19.700Z,101937.66
2023-05-19T05:43:46.107Z,101942.56
2023-05-19T05:46:12.623Z,101939.47
2023-05-19T05:48:39.711Z,101943.56
2023-05-19T05:51:06.599Z,101938.78
2023-05-19T05:53:39.917Z,101938.78
2023-05-19T05:56:06.790Z,101942.94
2023-05-19T05:58:35.800Z,101941.78
2023-05-19T06:01:05.433Z,101945.41
2023-05-19T06:03:33.477Z,101938.00
2023-05-19T06:06:00.313Z,101938.97
2023-05-19T06:08:28.237Z,101937.97
2023-05-19T06:10:57.089Z,101938.25
2023-05-19T06:13:24.155Z,101938.59
2023-05-19T06:15:51.298Z,101936.06
2023-05-19T06:18:18.088Z,101936.88
2023-05-19T06:20:44.804Z,101939.97
2023-05-19T06:23:11.360Z,101933.84
2023-05-19T06:25:37.769Z,101932.84
2023-05-19T06:28:04.346Z,101923.09
2023-05-19T06:30:31.029Z,101930.47
2023-05-19T06:32:57.601Z,101922.69
2023-05-19T06:35:25.135Z,101926.97
2023-05-19T06:37:53.915Z,101924.44
2023-05-19T06:40:20.480Z,101921.59
2023-05-19T06:42:46.819Z,101914.63
2023-05-19T06:45:13.449Z,101912.94
2023-05-19T06:47:42.372Z,101920.44
2023-05-19T06:50:10.614Z,101917.59
2023-05-19T06:52:38.957Z,101907.13
2023-05-19T06:55:05.998Z,101920.72
2023-05-19T06:57:33.233Z,101919.00
2023-05-19T06:59:59.694Z,101913.66
2023-05-19T07:02:26.262Z,101919.53
2023-05-19T07:04:54.223Z,101920.59
2023-05-19T07:07:20.790Z,101922.50
2023-05-19T07:09:50.294Z,101920.78
2023-05-19T07:12:16.708Z,101916.22
2023-05-19T07:14:43.070Z,101919.78
2023-05-19T07:17:10.845Z,101913.59
2023-05-19T07:19:39.628Z,101915.50
2023-05-19T07:22:06.193Z,101913.41
2023-05-19T07:24:32.599Z,101906.88
2023-05-19T07:26:59.023Z,101913.19
2023-05-19T07:29:25.671Z,101907.44
2023-05-19T07:31:54.287Z,101905.81
2023-05-19T07:34:22.752Z,101908.59
2023-05-19T07:36:49.142Z,101908.59
2023-05-19T07:39:15.741Z,101907.41
2023-05-19T07:41:42.256Z,101906.69
2023-05-19T07:44:08.863Z,101897.94
2023-05-19T07:46:37.803Z,101896.44
2023-05-19T07:49:07.292Z,101903.03
2023-05-19T07:51:33.728Z,101900.84
2023-05-19T07:54:00.345Z,101900.56
2023-05-19T07:56:27.324Z,101897.03
2023-05-19T07:58:53.876Z,101894.28
2023-05-19T08:01:20.324Z,101898.00
2023-05-19T08:03:47.152Z,101894.50
2023-05-19T08:06:13.642Z,101884.50
2023-05-19T08:08:40.057Z,101885.38
2023-05-19T08:11:06.918Z,101880.19
2023-05-19T08:13:35.193Z,101886.25
2023-05-19T08:16:03.885Z,101888.69
2023-05-19T08:18:30.570Z,101883.47
2023-05-19T08:20:57.865Z,101888.34
2023-05-19T08:23:25.663Z,101879.88
2023-05-19T08:25:52.208Z,101885.47
2023-05-19T08:28:19.121Z,101881.00
2023-05-19T08:30:45.554Z,101871.19
2023-05-19T08:33:12.152Z,101872.66
2023-05-19T08:35:38.641Z,101866.78
2023-05-19T08:38:05.340Z,101863.69
2023-05-19T08:40:35.763Z,101861.78
2023-05-19T08:43:02.538Z,101860.63
2023-05-19T08:45:29.990Z,101852.22
2023-05-19T08:47:58.070Z,101854.31
2023-05-19T08:50:32.246Z,101851.94
2023-05-19T08:53:33.789Z,101847.91
2023-05-19T08:56:17.690Z,101839.41
2023-05-19T08:58:46.176Z,101835.78
2023-05-19T09:01:13.936Z,101836.59
2023-05-19T09:03:42.985Z,101832.53
2023-05-19T09:06:12.534Z,101829.28
2023-05-19T09:08:42.118Z,101828.44
2023-05-19T09:11:12.113Z,101823.97
2023-05-19T09:13:41.041Z,101828.38
2023-05-19T09:16:08.181Z,101828.25
2023-05-19T09:18:38.358Z,101829.41
2023-05-19T09:21:09.275Z,101829.31
2023-05-19T09:23:36.169Z,101822.38
2023-05-19T09:26:09.015Z,101814.22
2023-05-19T09:28:36.751Z,101808.91
2023-05-19T09:31:11.452Z,101817.78
2023-05-19T09:33:40.357Z,101814.91
2023-05-19T09:36:08.704Z,101810.41
2023-05-19T09:38:36.840Z,101807.91
2023-05-19T09:41:04.868Z,101803.81
2023-05-19T09:43:36.569Z,101801.34
2023-05-19T09:46:14.321Z,101804.53
2023-05-19T09:48:42.600Z,101806.97
2023-05-19T09:51:12.201Z,101796.84
2023-05-19T09:53:39.126Z,101795.59
2023-05-19T09:56:08.668Z,101798.84
2023-05-19T09:58:37.128Z,101795.19
2023-05-19T10:01:04.977Z,101784.25
2023-05-19T10:03:35.223Z,101787.06
2023-05-19T10:06:02.879Z,101789.09
2023-05-19T10:08:31.000Z,101792.31
2023-05-19T10:10:57.985Z,101788.69
2023-05-19T10:13:25.651Z,101781.41
2023-05-19T10:15:58.943Z,101783.03
2023-05-19T10:18:28.358Z,101775.34
2023-05-19T10:20:58.194Z,101771.31
2023-05-19T10:23:25.459Z,101762.81
2023-05-19T10:25:56.602Z,101762.81
2023-05-19T10:28:32.058Z,101764.03
2023-05-19T10:31:04.008Z,101769.69
2023-05-19T10:33:57.230Z,101768.84
2023-05-19T10:36:48.455Z,101775.75
2023-05-19T10:39:25.538Z,101775.34
2023-05-19T10:42:05.248Z,101767.31
2023-05-19T10:44:39.606Z,101773.00
2023-05-19T10:47:12.407Z,101768.97
2023-05-19T10:49:39.710Z,101765.75
2023-05-19T10:52:22.487Z,101763.75
2023-05-19T10:54:51.188Z,101760.94
2023-05-19T10:57:20.066Z,101757.75
2023-05-19T10:59:47.216Z,101758.22
2023-05-19T11:02:56.504Z,101742.88
2023-05-19T11:05:29.293Z,101748.16
2023-05-19T11:08:06.192Z,101748.97
2023-05-19T11:10:32.971Z,101743.72
2023-05-19T11:12:59.659Z,101741.69
2023-05-19T11:15:36.638Z,101742.13
2023-05-19T11:18:04.887Z,101746.16
2023-05-19T11:20:35.427Z,101746.63
2023-05-19T11:23:11.745Z,101750.28
2023-05-19T11:25:44.567Z,101746.63
2023-05-19T11:28:14.712Z,101742.63
2023-05-19T11:30:44.411Z,101732.53
2023-05-19T11:33:11.203Z,101744.31
2023-05-19T11:35:38.662Z,101739.88
2023-05-19T11:38:06.907Z,101737.47
2023-05-19T11:40:33.752Z,101733.06
2023-05-19T11:43:02.041Z,101737.97
2023-05-19T11:45:31.662Z,101727.84
2023-05-19T11:48:02.410Z,101725.06
2023-05-19T11:50:31.189Z,101722.25
2023-05-19T11:53:02.380Z,101719.03
2023-05-19T11:55:29.610Z,101715.00
2023-05-19T11:58:05.610Z,101716.22
2023-05-19T12:00:40.329Z,101720.28
2023-05-19T12:03:08.378Z,101718.28
2023-05-19T12:05:42.852Z,101723.13
2023-05-19T12:08:10.601Z,101713.81
2023-05-19T12:10:38.789Z,101717.84
2023-05-19T12:13:09.141Z,101717.03
2023-05-19T12:15:36.930Z,101703.25
2023-05-19T12:18:03.950Z,101718.66
2023-05-19T12:20:32.501Z,101705.69
2023-05-19T12:23:00.344Z,101697.63
2023-05-19T12:25:26.917Z,101689.13
2023-05-19T12:27:58.659Z,101694.78
2023-05-19T12:30:28.826Z,101691.13
2023-05-19T12:32:57.970Z,101686.28
2023-05-19T12:35:29.551Z,101682.22
2023-05-19T12:37:56.139Z,101678.19
2023-05-19T12:40:24.017Z,101676.56
2023-05-19T12:42:54.855Z,101677.38
2023-05-19T12:45:23.013Z,101682.66
2023-05-19T12:47:50.482Z,101677.00
2023-05-19T12:50:17.128Z,101678.22
2023-05-19T12:52:46.506Z,101673.38
2023-05-19T12:55:14.552Z,101664.47
2023-05-19T12:57:44.310Z,101673.38
2023-05-19T13:00:17.797Z,101679.84
2023-05-19T13:03:07.470Z,101669.72
2023-05-19T13:05:39.561Z,101663.66
2023-05-19T13:08:06.827Z,101659.59
2023-05-19T13:10:34.869Z,101664.47
2023-05-19T13:13:02.226Z,101657.19
2023-05-19T13:15:37.707Z,101654.34
2023-05-19T13:18:08.586Z,101660.00
2023-05-19T13:20:36.473Z,101657.22
2023-05-19T13:23:06.291Z,101655.19
2023-05-19T13:25:34.327Z,101651.94
2023-05-19T13:28:03.886Z,101652.75
2023-05-19T13:30:32.055Z,101645.47
2023-05-19T13:32:59.831Z,101647.88
2023-05-19T13:35:26.349Z,101656.00
2023-05-19T13:37:52.872Z,101655.19
2023-05-19T13:40:19.601Z,101650.28
2023-05-19T13:42:46.222Z,101656.38
2023-05-19T13:45:12.902Z,101655.97
2023-05-19T13:47:40.096Z,101660.44
2023-05-19T13:50:07.541Z,101656.38
2023-05-19T13:52:35.136Z,101655.16
2023-05-19T13:55:01.831Z,101650.28
2023-05-19T13:57:28.508Z,101638.16
2023-05-19T14:00:02.512Z,101634.50
2023-05-19T14:02:30.516Z,101631.25
2023-05-19T14:04:58.049Z,101633.28
2023-05-19T14:07:25.461Z,101639.38
2023-05-19T14:09:52.582Z,101634.09
2023-05-19T14:12:20.142Z,101628.41
2023-05-19T14:14:49.036Z,101625.19
2023-05-19T14:17:15.920Z,101628.41
2023-05-19T14:19:42.417Z,101628.78
2023-05-19T14:22:08.856Z,101625.56
2023-05-19T14:24:35.414Z,101621.91
2023-05-19T14:27:02.708Z,101618.66
2023-05-19T14:29:31.247Z,101639.34
2023-05-19T14:31:57.822Z,101633.25
2023-05-19T14:34:26.926Z,101629.19
2023-05-19T14:36:53.641Z,101630.81
2023-05-19T14:39:20.256Z,101629.59
2023-05-19T14:41:47.032Z,101626.78
2023-05-19T14:44:14.145Z,101616.22
2023-05-19T14:46:42.213Z,101623.13
2023-05-19T14:49:08.658Z,101628.00
2023-05-19T14:51:35.071Z,101627.19
2023-05-19T14:54:02.227Z,101635.28
2023-05-19T14:56:28.950Z,101628.81
2023-05-19T14:58:55.395Z,101630.41
2023-05-19T15:01:21.928Z,101633.25
2023-05-19T15:03:48.652Z,101623.13
2023-05-19T15:06:15.124Z,101628.00
2023-05-19T15:08:41.649Z,101622.31
2023-05-19T15:11:08.228Z,101615.41
2023-05-19T15:13:35.224Z,101614.19
2023-05-19T15:16:16.294Z,101619.06
2023-05-19T15:18:43.754Z,101612.56
2023-05-19T15:21:10.345Z,101611.75
2023-05-19T15:23:37.074Z,101620.28
2023-05-19T15:26:03.809Z,101605.28
2023-05-19T15:28:30.477Z,101603.63
2023-05-19T15:30:56.957Z,101605.66
2023-05-19T15:33:23.621Z,101606.47
2023-05-19T15:35:53.089Z,101615.81
2023-05-19T15:38:20.469Z,101615.81
2023-05-19T15:40:47.098Z,101614.59
2023-05-19T15:43:14.062Z,101609.31
2023-05-19T15:45:40.963Z,101601.22
2023-05-19T15:48:07.842Z,101595.53
2023-05-19T15:50:34.732Z,101593.09
2023-05-19T15:53:01.805Z,101598.75
2023-05-19T15:55:28.297Z,101591.88
2023-05-19T15:57:54.720Z,101597.56
2023-05-19T16:00:21.306Z,101593.91
2023-05-19T16:02:47.958Z,101596.75
2023-05-19T16:05:15.559Z,101598.75
2023-05-19T16:07:42.297Z,101595.91
2023-05-19T16:10:09.534Z,101595.53
2023-05-19T16:12:37.573Z,101598.78
2023-05-19T16:15:04.411Z,101589.47
2023-05-19T16:17:30.994Z,101585.00
2023-05-19T16:19:57.753Z,101580.94
2023-05-19T16:22:24.912Z,101577.72
2023-05-19T16:24:52.205Z,101586.25
2023-05-19T16:27:21.613Z,101575.31
2023-05-19T16:29:48.481Z,101575.69
2023-05-19T16:32:15.313Z,101570.00
2023-05-19T16:34:44.027Z,101571.66
2023-05-19T16:37:10.665Z,101570.00
2023-05-19T16:39:37.268Z,101565.56
2023-05-19T16:42:04.753Z,101573.28
2023-05-19T16:44:31.421Z,101567.19
2023-05-19T16:46:58.354Z,101556.25
2023-05-19T16:49:25.921Z,101565.97
2023-05-19T16:51:53.109Z,101558.69
2023-05-19T16:54:20.215Z,101563.56
2023-05-19T16:56:46.710Z,101558.25
2023-05-19T16:59:14.007Z,101565.97
2023-05-19T17:01:42.085Z,101563.13
2023-05-19T17:04:08.815Z,101571.25
2023-05-19T17:06:36.143Z,101558.28
2023-05-19T17:09:02.858Z,101555.84
2023-05-19T17:11:29.562Z,101563.16
2023-05-19T17:13:55.999Z,101561.53
2023-05-19T17:16:23.566Z,101568.84
2023-05-19T17:18:51.589Z,101561.50
2023-05-19T17:21:18.108Z,101569.59
2023-05-19T17:23:46.304Z,101561.50
2023-05-19T17:26:12.787Z,101556.25
2023-05-19T17:28:39.228Z,101554.22
2023-05-19T17:31:12.518Z,101570.03
2023-05-19T17:33:39.742Z,101563.56
2023-05-19T17:36:07.149Z,101563.13
2023-05-19T17:38:35.556Z,101559.09
2023-05-19T17:41:02.822Z,101563.97
2023-05-19T17:43:29.353Z,101561.53
2023-05-19T17:45:58.779Z,101562.34
2023-05-19T17:48:26.741Z,101561.13
2023-05-19T17:50:54.696Z,101564.34
2023-05-19T17:53:21.606Z,101573.28
2023-05-19T17:55:51.736Z,101566.41
2023-05-19T17:58:26.406Z,101570.44
2023-05-19T18:00:54.284Z,101572.06
2023-05-19T18:03:24.107Z,101577.72
2023-05-19T18:05:53.771Z,101578.53
2023-05-19T18:08:20.589Z,101583.41
2023-05-19T18:10:48.549Z,101586.25
2023-05-19T18:13:15.081Z,101584.22
2023-05-19T18:15:41.841Z,101586.22
2023-05-19T18:18:10.415Z,101585.41
2023-05-19T18:20:38.915Z,101577.31
2023-05-19T18:23:05.950Z,101575.28
2023-05-19T18:25:32.587Z,101579.72
2023-05-19T18:27:59.038Z,101583.78
2023-05-19T18:30:25.802Z,101580.09
2023-05-19T18:32:52.206Z,101589.00
2023-05-19T18:35:20.737Z,101586.16
2023-05-19T18:37:47.451Z,101582.91
2023-05-19T18:40:14.056Z,101588.97
2023-05-19T18:42:40.603Z,101585.72
2023-05-19T18:45:08.048Z,101586.13
2023-05-19T18:47:34.504Z,101595.81
2023-05-19T18:50:01.828Z,101595.81
2023-05-19T18:52:29.274Z,101603.50
2023-05-19T18:54:55.934Z,101601.88
2023-05-19T18:57:23.040Z,101608.31
2023-05-19T18:59:49.716Z,101611.56
2023-05-19T19:02:16.201Z,101604.25
2023-05-19T19:04:42.700Z,101606.66
2023-05-19T19:07:09.345Z,101615.13
2023-05-19T19:09:35.728Z,101615.91
2023-05-19T19:12:02.716Z,101624.78
2023-05-19T19:14:29.265Z,101625.19
2023-05-19T19:16:56.304Z,101623.56
2023-05-19T19:19:24.296Z,101625.97
2023-05-19T19:21:50.992Z,101632.44
2023-05-19T19:24:17.931Z,101633.19
2023-05-19T19:26:46.541Z,101633.56
2023-05-19T19:29:15.505Z,101642.03
2023-05-19T19:31:42.146Z,101636.72
2023-05-19T19:34:09.677Z,101643.56
2023-05-19T19:36:37.408Z,101644.75
2023-05-19T19:39:04.030Z,101644.72
2023-05-19T19:41:31.054Z,101655.59
2023-05-19T19:43:59.928Z,101652.72
2023-05-19T19:46:26.412Z,101658.75
2023-05-19T19:48:56.472Z,101667.16
2023-05-19T19:51:24.566Z,101665.94
2023-05-19T19:53:50.929Z,101664.28
2023-05-19T19:56:18.489Z,101663.44
2023-05-19T19:58:44.970Z,101660.56
2023-05-19T20:01:11.446Z,101663.38
2023-05-19T20:03:38.139Z,101651.22
2023-05-19T20:06:04.679Z,101656.81
2023-05-19T20:08:31.078Z,101653.13
2023-05-19T20:10:59.217Z,101660.75
2023-05-19T20:13:25.877Z,101657.91
2023-05-19T20:15:52.850Z,101655.81
2023-05-19T20:18:20.519Z,101656.16
2023-05-19T20:20:46.962Z,101657.31
2023-05-19T20:23:16.126Z,101662.97
2023-05-19T20:25:57.845Z,101660.47
2023-05-19T20:28:29.792Z,101662.88
2023-05-19T20:30:56.485Z,101668.47
2023-05-19T20:33:22.965Z,101667.25
2023-05-19T20:35:50.728Z,101664.75
2023-05-19T20:38:18.559Z,101671.97
2023-05-19T20:40:45.284Z,101672.31
2023-05-19T20:43:12.206Z,101667.47
2023-05-19T20:45:38.714Z,101669.44
2023-05-19T20:48:05.938Z,101673.81
2023-05-19T20:50:32.853Z,101669.38
2023-05-19T20:53:00.684Z,101667.69
2023-05-19T20:55:27.636Z,101665.69
2023-05-19T20:57:55.147Z,101672.06
2023-05-19T21:00:21.829Z,101674.06
2023-05-19T21:02:48.484Z,101677.28
2023-05-19T21:05:14.982Z,101679.72
2023-05-19T21:07:41.391Z,101673.28
2023-05-19T21:10:08.507Z,101674.47
2023-05-19T21:12:35.500Z,101666.81
2023-05-19T21:15:02.070Z,101674.47
2023-05-19T21:17:29.864Z,101675.28
2023-05-19T21:19:59.478Z,101679.31
2023-05-19T21:22:27.225Z,101682.13
2023-05-19T21:24:54.562Z,101683.75
2023-05-19T21:27:22.744Z,101682.13
2023-05-19T21:29:53.692Z,101683.34
2023-05-19T21:32:23.286Z,101673.66
2023-05-19T21:34:49.730Z,101672.47
2023-05-19T21:37:19.881Z,101673.28
2023-05-19T21:39:46.625Z,101669.63
2023-05-19T21:42:14.388Z,101678.91
2023-05-19T21:44:40.881Z,101672.47
2023-05-19T21:47:07.340Z,101676.53
2023-05-19T21:49:33.819Z,101682.19
2023-05-19T21:52:02.052Z,101687.47
2023-05-19T21:54:28.577Z,101688.28
2023-05-19T21:56:55.021Z,101687.09
2023-05-19T21:59:23.381Z,101680.25
2023-05-19T22:01:50.267Z,101686.72
2023-05-19T22:04:18.499Z,101677.44
2023-05-19T22:06:45.447Z,101675.41
2023-05-19T22:09:11.897Z,101672.16
2023-05-19T22:11:38.966Z,101666.91
2023-05-19T22:14:05.418Z,101661.97
2023-05-19T22:16:33.069Z,101671.59
2023-05-19T22:18:59.963Z,101681.22
2023-05-19T22:21:28.485Z,101677.91
2023-05-19T22:23:55.671Z,101681.06
2023-05-19T22:26:22.044Z,101676.16
2023-05-19T22:28:50.641Z,101669.56
2023-05-19T22:31:18.098Z,101669.09
2023-05-19T22:33:44.789Z,101671.81
2023-05-19T22:36:11.370Z,101671.31
2023-05-19T22:38:40.753Z,101667.59
2023-05-19T22:41:08.811Z,101675.56
2023-05-19T22:43:35.571Z,101676.25
2023-05-19T22:46:02.263Z,101673.28
2023-05-19T22:48:28.970Z,101669.53
2023-05-19T22:50:55.776Z,101673.88
2023-05-19T22:53:22.253Z,101677.81
2023-05-19T22:55:48.677Z,101672.06
2023-05-19T22:58:15.264Z,101677.19
2023-05-19T23:00:42.686Z,101674.69
2023-05-19T23:03:09.304Z,101675.00
2023-05-19T23:05:37.873Z,101676.94
2023-05-19T23:08:04.444Z,101673.25
2023-05-19T23:10:30.870Z,101677.22
2023-05-19T23:12:57.584Z,101681.56
2023-05-19T23:15:24.228Z,101677.81
2023-05-19T23:17:51.045Z,101679.28
2023-05-19T23:20:17.692Z,101681.16
2023-05-19T23:22:44.401Z,101677.81
2023-05-19T23:25:12.099Z,101676.91
2023-05-19T23:27:38.794Z,101678.03
2023-05-19T23:30:07.016Z,101671.03
2023-05-19T23:32:33.724Z,101670.19
2023-05-19T23:35:19.927Z,101672.03
2023-05-19T23:37:48.120Z,101665.56
2023-05-19T23:40:16.166Z,101667.88
2023-05-19T23:42:44.517Z,101678.69
2023-05-19T23:45:11.458Z,101674.16
2023-05-19T23:47:38.007Z,101667.28
2023-05-19T23:50:05.006Z,101671.19
2023-05-19T23:52:33.716Z,101667.47
2023-05-19T23:55:00.287Z,101676.66
2023-05-19T23:57:28.205Z,101671.78
2023-05-19T23:59:54.624Z,101671.31
